Time;durP1;ratioP1;P1;durP2;ratioP2;P2;SDS_P1;SDS_P2;PMS_P1;PMS_P2;Temp;Humidity;BMP_temperature;BMP_pressure;BME280_temperature;BME280_humidity;BME280_pressure;Samples;Min_cycle;Max_cycle;Signal;HPM_P1;HPM_P2
2021/06/06 00:01:32;;;;;;;3.63;2.63;;;20.10;69.00;;;;;;4925849;29;20048;-74
2021/06/06 00:04:00;;;;;;;3.92;3.10;;;20.20;69.20;;;;;;4926191;29;20028;-74
2021/06/06 00:06:31;;;;;;;3.33;2.38;;;20.40;68.30;;;;;;4927386;29;20483;-76
2021/06/06 00:09:00;;;;;;;3.70;2.60;;;20.40;71.20;;;;;;4927556;29;20390;-75
2021/06/06 00:11:38;;;;;;;5.00;3.67;;;20.50;67.80;;;;;;4926283;29;20032;-74
2021/06/06 00:14:09;;;;;;;6.65;3.22;;;20.60;68.00;;;;;;4927046;29;20336;-75
2021/06/06 00:16:42;;;;;;;3.33;2.22;;;20.30;67.90;;;;;;4926333;29;20079;-74
2021/06/06 00:19:10;;;;;;;3.80;2.20;;;20.50;68.80;;;;;;4923508;29;20066;-75
2021/06/06 00:21:39;;;;;;;2.92;1.90;;;20.90;68.20;;;;;;4926342;29;20032;-74
2021/06/06 00:24:09;;;;;;;2.95;1.70;;;21.20;66.10;;;;;;4923782;29;20159;-73
2021/06/06 00:26:37;;;;;;;2.42;1.50;;;21.60;65.70;;;;;;4921138;29;20032;-74
2021/06/06 00:29:05;;;;;;;3.85;2.72;;;21.40;65.50;;;;;;4929082;29;20035;-75
2021/06/06 00:31:34;;;;;;;5.72;3.10;;;21.20;65.50;;;;;;4928873;29;20032;-75
2021/06/06 00:34:01;;;;;;;5.95;3.08;;;21.30;67.50;;;;;;4909614;29;20032;-74
2021/06/06 00:36:29;;;;;;;4.28;3.40;;;21.40;64.60;;;;;;4923190;29;20123;-75
2021/06/06 00:38:57;;;;;;;6.55;2.85;;;21.80;64.30;;;;;;4928301;29;20034;-75
2021/06/06 00:41:26;;;;;;;5.22;3.40;;;21.90;65.90;;;;;;4929989;29;20039;-76
2021/06/06 00:43:54;;;;;;;4.15;2.10;;;22.20;64.30;;;;;;4931140;29;20359;-74
2021/06/06 00:46:27;;;;;;;2.75;1.65;;;22.30;62.00;;;;;;4924985;29;20031;-75
2021/06/06 00:48:55;;;;;;;2.85;2.45;;;22.90;61.50;;;;;;4925208;29;20036;-75
2021/06/06 00:51:33;;;;;;;5.20;3.60;;;23.00;60.00;;;;;;4926994;29;20391;-74
2021/06/06 00:54:24;;;;;;;7.65;3.83;;;22.60;60.40;;;;;;4925539;29;20036;-74
2021/06/06 00:57:04;;;;;;;3.97;2.58;;;22.60;61.00;;;;;;4925415;29;20039;-75
2021/06/06 00:59:36;;;;;;;3.25;2.63;;;22.70;61.20;;;;;;4926160;29;20031;-75
2021/06/06 01:02:05;;;;;;;4.50;2.63;;;23.00;60.70;;;;;;4927419;29;20039;-75
2021/06/06 01:04:32;;;;;;;4.75;2.45;;;23.50;58.70;;;;;;4925305;28;20032;-74
2021/06/06 01:07:00;;;;;;;4.38;2.60;;;23.50;58.60;;;;;;4924710;29;20043;-75
2021/06/06 01:09:28;;;;;;;4.10;2.45;;;23.60;61.70;;;;;;4924202;29;20490;-75
2021/06/06 01:12:10;;;;;;;3.92;2.75;;;23.90;58.10;;;;;;4925764;29;20391;-74
2021/06/06 01:14:37;;;;;;;4.47;2.58;;;23.80;58.00;;;;;;4924426;29;20036;-74
2021/06/06 01:17:22;;;;;;;3.53;2.22;;;24.20;59.40;;;;;;4926770;29;20035;-74
2021/06/06 01:19:56;;;;;;;3.35;2.30;;;24.20;55.50;;;;;;4923520;29;20028;-74
2021/06/06 01:22:52;;;;;;;3.97;1.88;;;23.90;56.60;;;;;;4923472;29;20027;-74
2021/06/06 01:25:21;;;;;;;2.90;2.00;;;24.60;57.70;;;;;;4923165;29;20023;-75
2021/06/06 01:27:58;;;;;;;2.95;2.35;;;24.30;57.00;;;;;;4926124;29;20055;-75
2021/06/06 01:30:32;;;;;;;4.70;2.47;;;24.70;57.20;;;;;;4925106;29;20201;-76
2021/06/06 01:33:54;;;;;;;3.67;2.28;;;24.90;53.90;;;;;;4925559;29;20043;-75
2021/06/06 01:36:26;;;;;;;2.63;1.80;;;25.10;53.30;;;;;;4920075;29;20174;-76
2021/06/06 01:39:06;;;;;;;2.80;1.80;;;24.50;53.70;;;;;;4941082;29;20036;-75
2021/06/06 01:41:41;;;;;;;3.72;1.85;;;24.80;55.90;;;;;;4925708;29;20056;-72
2021/06/06 01:44:11;;;;;;;2.50;2.30;;;24.90;57.30;;;;;;4923175;29;20098;-75
2021/06/06 01:46:47;;;;;;;3.33;2.05;;;24.90;55.20;;;;;;4926676;29;20051;-74
2021/06/06 01:49:17;;;;;;;2.80;1.70;;;25.30;56.80;;;;;;4923268;29;20023;-74
2021/06/06 01:51:49;;;;;;;3.15;1.45;;;25.60;52.70;;;;;;4926179;29;20036;-74
2021/06/06 01:54:19;;;;;;;3.95;2.10;;;25.20;53.20;;;;;;4923848;29;20039;-74
2021/06/06 01:56:50;;;;;;;3.15;1.50;;;25.70;54.00;;;;;;4923619;29;20047;-75
2021/06/06 01:59:27;;;;;;;2.55;1.20;;;26.10;54.70;;;;;;4922630;29;20035;-74
2021/06/06 02:01:55;;;;;;;1.48;0.68;;;26.40;49.40;;;;;;4909597;29;20047;-75
2021/06/06 02:04:24;;;;;;;1.30;0.80;;;26.60;49.70;;;;;;4926353;29;20341;-74
2021/06/06 02:06:59;;;;;;;2.00;1.35;;;26.20;54.90;;;;;;4924990;29;20499;-74
2021/06/06 02:09:31;;;;;;;1.77;0.55;;;26.50;56.70;;;;;;4925383;29;20526;-74
2021/06/06 02:12:04;;;;;;;1.65;0.30;;;26.40;46.30;;;;;;4927678;29;20514;-75
2021/06/06 02:14:41;;;;;;;0.95;0.30;;;26.50;47.80;;;;;;4929394;29;20044;-75
2021/06/06 02:17:14;;;;;;;0.65;0.50;;;26.40;48.70;;;;;;4928542;29;20091;-75
2021/06/06 02:19:43;;;;;;;0.40;0.40;;;26.70;47.40;;;;;;4929211;29;20063;-74
2021/06/06 02:22:15;;;;;;;0.15;0.10;;;26.70;47.30;;;;;;4928987;29;20030;-75
2021/06/06 02:24:44;;;;;;;0.52;0.20;;;26.60;46.10;;;;;;4925013;29;20039;-75
2021/06/06 02:27:21;;;;;;;1.50;0.22;;;26.60;46.90;;;;;;4931552;29;20103;-75
2021/06/06 02:30:05;;;;;;;1.45;0.15;;;26.80;45.30;;;;;;4924961;29;20111;-75
2021/06/06 02:32:45;;;;;;;1.67;0.30;;;26.80;48.40;;;;;;4924846;29;20035;-74
2021/06/06 02:35:15;;;;;;;0.40;0.10;;;26.60;46.00;;;;;;4924150;29;20024;-74
2021/06/06 02:38:09;;;;;;;1.70;0.50;;;26.90;45.40;;;;;;4923176;29;20039;-74
2021/06/06 02:40:44;;;;;;;0.32;0.10;;;26.90;48.00;;;;;;4926096;29;20379;-75
2021/06/06 02:43:36;;;;;;;0.57;0.20;;;27.00;42.20;;;;;;4923421;29;20036;-75
2021/06/06 02:46:05;;;;;;;0.90;0.30;;;26.70;50.20;;;;;;4925395;29;20049;-74
2021/06/06 02:48:46;;;;;;;0.63;0.47;;;26.60;44.80;;;;;;4923522;29;20137;-74
2021/06/06 02:51:18;;;;;;;0.20;0.15;;;26.20;44.60;;;;;;4923005;29;20107;-76
2021/06/06 02:54:03;;;;;;;0.55;0.20;;;25.80;43.60;;;;;;4926439;29;20031;-75
2021/06/06 02:56:36;;;;;;;0.73;0.10;;;25.50;43.90;;;;;;4923238;29;20091;-75
2021/06/06 02:59:21;;;;;;;2.10;0.45;;;25.70;43.40;;;;;;4923556;29;20031;-74
2021/06/06 03:01:56;;;;;;;0.15;0.10;;;25.80;44.30;;;;;;4923190;29;20039;-76
2021/06/06 03:04:26;;;;;;;0.65;0.47;;;25.80;48.30;;;;;;4928507;29;20050;-75
2021/06/06 03:07:11;;;;;;;2.05;0.40;;;26.00;49.50;;;;;;4930983;29;20044;-75
2021/06/06 03:09:38;;;;;;;0.70;0.10;;;25.50;43.60;;;;;;4928754;29;20020;-75
2021/06/06 03:12:09;;;;;;;0.20;0.10;;;25.30;47.50;;;;;;4933451;29;20031;-75
2021/06/06 03:14:42;;;;;;;0.57;0.10;;;25.00;46.20;;;;;;4931045;29;20479;-74
2021/06/06 03:17:14;;;;;;;0.90;0.65;;;25.10;48.50;;;;;;4927494;29;20527;-75
2021/06/06 03:19:45;;;;;;;1.05;0.10;;;24.80;46.20;;;;;;4929794;29;20027;-74
2021/06/06 03:22:18;;;;;;;0.75;0.22;;;24.50;44.70;;;;;;4930662;29;20058;-74
2021/06/06 03:24:54;;;;;;;0.25;0.10;;;24.20;46.10;;;;;;4930003;29;20046;-74
2021/06/06 03:27:26;;;;;;;0.65;0.40;;;23.70;46.70;;;;;;4928599;29;20020;-74
2021/06/06 03:30:05;;;;;;;0.65;0.22;;;23.20;47.10;;;;;;4926692;29;20645;-76
2021/06/06 03:32:38;;;;;;;2.83;0.40;;;23.10;46.80;;;;;;4929704;29;20024;-75
2021/06/06 03:35:09;;;;;;;1.98;0.30;;;22.90;48.30;;;;;;4927610;29;20036;-75
2021/06/06 03:37:36;;;;;;;2.33;0.10;;;22.50;47.70;;;;;;4927057;29;20071;-74
2021/06/06 03:40:06;;;;;;;0.95;0.38;;;22.30;49.20;;;;;;4925463;29;20034;-73
2021/06/06 03:42:34;;;;;;;1.92;0.20;;;21.70;49.10;;;;;;4929295;29;20082;-76
2021/06/06 03:45:01;;;;;;;0.25;0.10;;;21.50;51.10;;;;;;4927388;29;20020;-74
2021/06/06 03:47:28;;;;;;;0.30;0.20;;;21.40;54.00;;;;;;4928824;29;20032;-75
2021/06/06 03:49:56;;;;;;;0.45;0.10;;;21.40;52.90;;;;;;4931470;29;20407;-75
2021/06/06 03:52:23;;;;;;;0.77;0.15;;;21.20;52.80;;;;;;4929782;29;20027;-74
2021/06/06 03:54:53;;;;;;;0.63;0.10;;;21.10;52.70;;;;;;4927204;29;20031;-74
2021/06/06 03:57:21;;;;;;;1.75;0.28;;;20.80;53.10;;;;;;4930341;29;20051;-74
2021/06/06 03:59:48;;;;;;;1.42;0.10;;;20.70;52.70;;;;;;4925843;29;20131;-75
2021/06/06 04:02:16;;;;;;;0.50;0.28;;;20.60;54.20;;;;;;4927281;29;20035;-74
2021/06/06 04:04:43;;;;;;;0.88;0.20;;;20.20;53.90;;;;;;4925425;29;20423;-75
2021/06/06 04:07:12;;;;;;;0.47;0.10;;;20.20;53.50;;;;;;4923492;29;20055;-75
2021/06/06 04:09:39;;;;;;;1.45;0.10;;;20.00;54.90;;;;;;4926936;29;20024;-74
2021/06/06 04:12:07;;;;;;;0.60;0.35;;;20.10;54.80;;;;;;4926251;29;20482;-74
2021/06/06 04:14:35;;;;;;;0.52;0.15;;;20.00;56.10;;;;;;4925697;29;20040;-74
2021/06/06 04:17:02;;;;;;;0.82;0.20;;;19.70;56.10;;;;;;4929041;29;20118;-74
2021/06/06 04:19:30;;;;;;;3.17;0.57;;;19.50;56.30;;;;;;4926431;29;20024;-74
2021/06/06 04:21:57;;;;;;;1.00;0.20;;;19.50;56.70;;;;;;4925326;29;20070;-75
2021/06/06 04:24:24;;;;;;;0.65;0.32;;;19.50;54.70;;;;;;4928484;29;20043;-75
2021/06/06 04:26:52;;;;;;;0.40;0.20;;;19.40;56.30;;;;;;4930672;29;20102;-74
2021/06/06 04:29:19;;;;;;;1.00;0.20;;;19.40;55.60;;;;;;4927295;29;20023;-75
2021/06/06 04:31:48;;;;;;;0.85;0.20;;;19.40;56.50;;;;;;4925703;29;20047;-75
2021/06/06 04:34:15;;;;;;;0.73;0.30;;;19.20;57.00;;;;;;4910958;29;20114;-74
2021/06/06 04:36:47;;;;;;;0.93;0.52;;;19.20;58.80;;;;;;4926634;29;20507;-74
2021/06/06 04:39:14;;;;;;;0.82;0.20;;;19.10;57.10;;;;;;4927609;29;20039;-75
2021/06/06 04:41:42;;;;;;;1.38;0.20;;;19.10;56.00;;;;;;4927698;29;20038;-75
2021/06/06 04:44:09;;;;;;;2.30;0.65;;;18.90;55.20;;;;;;4924652;29;20028;-75
2021/06/06 04:46:36;;;;;;;0.90;0.30;;;19.00;57.60;;;;;;4933529;29;20410;-74
2021/06/06 04:49:04;;;;;;;0.38;0.30;;;18.90;57.80;;;;;;4930188;29;20106;-75
2021/06/06 04:51:32;;;;;;;0.30;0.10;;;18.90;59.10;;;;;;4929518;29;20087;-74
2021/06/06 04:53:59;;;;;;;0.30;0.15;;;18.80;58.90;;;;;;4912672;29;20494;-74
2021/06/06 04:56:29;;;;;;;0.30;0.20;;;18.70;56.00;;;;;;4928324;29;20040;-73
2021/06/06 04:58:58;;;;;;;0.45;0.10;;;18.70;57.20;;;;;;4917007;29;20447;-75
2021/06/06 05:01:26;;;;;;;0.85;0.20;;;18.80;57.60;;;;;;4928679;29;20055;-76
2021/06/06 05:03:54;;;;;;;0.63;0.15;;;18.60;57.30;;;;;;4926814;29;20032;-74
2021/06/06 05:06:21;;;;;;;0.30;0.17;;;18.50;57.00;;;;;;4932126;29;20150;-74
2021/06/06 05:08:48;;;;;;;0.20;0.10;;;18.60;58.10;;;;;;4929436;29;20052;-75
2021/06/06 05:11:16;;;;;;;0.73;0.13;;;18.60;59.50;;;;;;4929232;29;20043;-74
2021/06/06 05:13:44;;;;;;;0.73;0.20;;;18.60;58.40;;;;;;4927050;29;20470;-74
2021/06/06 05:16:12;;;;;;;0.10;0.10;;;18.50;58.10;;;;;;4927230;29;20046;-73
2021/06/06 05:18:40;;;;;;;0.85;0.20;;;18.50;58.30;;;;;;4929661;29;20110;-75
2021/06/06 05:21:08;;;;;;;1.30;0.38;;;18.30;58.70;;;;;;4925898;29;20098;-74
2021/06/06 05:23:35;;;;;;;0.25;0.10;;;18.40;58.90;;;;;;4930827;29;20055;-74
2021/06/06 05:26:04;;;;;;;1.23;0.10;;;18.40;59.60;;;;;;4929604;28;20039;-73
2021/06/06 05:28:34;;;;;;;0.52;0.40;;;18.40;56.90;;;;;;4931390;29;20076;-74
2021/06/06 05:31:03;;;;;;;1.50;0.10;;;18.30;57.60;;;;;;4922625;29;20032;-76
2021/06/06 05:33:31;;;;;;;0.80;0.10;;;18.40;59.00;;;;;;4928684;29;20083;-75
2021/06/06 05:35:59;;;;;;;0.68;0.10;;;18.20;57.60;;;;;;4926727;29;20039;-75
2021/06/06 05:38:31;;;;;;;0.57;0.17;;;18.30;59.30;;;;;;4922460;29;20024;-76
2021/06/06 05:41:00;;;;;;;0.20;0.10;;;18.30;58.50;;;;;;4926320;29;20091;-73
2021/06/06 05:43:28;;;;;;;0.17;0.10;;;18.30;58.00;;;;;;4924512;29;20024;-76
2021/06/06 05:45:57;;;;;;;1.00;0.28;;;18.30;59.40;;;;;;4926358;29;20110;-74
2021/06/06 05:48:25;;;;;;;0.55;0.30;;;18.30;58.70;;;;;;4924727;29;20024;-74
2021/06/06 05:50:56;;;;;;;0.55;0.38;;;18.40;58.00;;;;;;4929437;29;20032;-74
2021/06/06 05:53:24;;;;;;;0.43;0.10;;;18.40;57.90;;;;;;4922545;29;20035;-74
2021/06/06 05:55:52;;;;;;;1.58;0.13;;;18.50;57.50;;;;;;4927055;29;20027;-74
2021/06/06 05:58:20;;;;;;;0.70;0.40;;;18.50;58.00;;;;;;4928570;29;20386;-74
2021/06/06 06:00:49;;;;;;;1.55;0.70;;;18.50;58.00;;;;;;4927176;28;20043;-76
2021/06/06 06:03:17;;;;;;;1.42;0.28;;;18.70;58.10;;;;;;4928845;29;20382;-74
2021/06/06 06:05:45;;;;;;;0.40;0.20;;;18.70;58.10;;;;;;4926535;29;20102;-75
2021/06/06 06:08:32;;;;;;;0.10;0.10;;;18.80;58.60;;;;;;4925465;29;20023;-76
2021/06/06 06:11:00;;;;;;;0.32;0.10;;;18.90;57.80;;;;;;4923105;29;20130;-76
2021/06/06 06:13:30;;;;;;;0.30;0.17;;;19.00;58.20;;;;;;4926177;29;20467;-76
2021/06/06 06:15:59;;;;;;;0.22;0.10;;;19.10;57.90;;;;;;4911973;29;20047;-75
2021/06/06 06:18:29;;;;;;;0.47;0.10;;;19.20;56.70;;;;;;4928744;29;20042;-76
2021/06/06 06:20:57;;;;;;;0.10;0.10;;;19.20;56.40;;;;;;4926819;29;20448;-75
2021/06/06 06:23:25;;;;;;;0.20;0.10;;;19.20;56.00;;;;;;4921899;29;20043;-74
2021/06/06 06:25:54;;;;;;;1.15;0.20;;;19.30;56.50;;;;;;4921967;29;20063;-73
2021/06/06 06:28:21;;;;;;;0.43;0.13;;;19.20;56.50;;;;;;4924878;29;20039;-74
2021/06/06 06:30:49;;;;;;;0.15;0.13;;;19.00;57.40;;;;;;4924826;29;20028;-74
2021/06/06 06:33:17;;;;;;;0.15;0.10;;;18.70;58.30;;;;;;4923911;29;20047;-74
2021/06/06 06:35:45;;;;;;;0.32;0.10;;;18.50;60.00;;;;;;4923237;29;20031;-74
2021/06/06 06:38:12;;;;;;;0.10;0.10;;;18.20;61.60;;;;;;4926188;29;20111;-73
2021/06/06 06:40:40;;;;;;;0.52;0.17;;;17.90;62.10;;;;;;4928362;29;20371;-74
2021/06/06 06:43:08;;;;;;;0.85;0.20;;;17.70;62.40;;;;;;4929776;29;20031;-74
2021/06/06 06:45:40;;;;;;;0.50;0.20;;;17.50;63.30;;;;;;4929051;29;20024;-74
2021/06/06 06:48:15;;;;;;;1.58;0.40;;;17.30;63.70;;;;;;4928853;29;20027;-76
2021/06/06 06:50:42;;;;;;;0.30;0.25;;;17.10;64.50;;;;;;4926301;29;20368;-76
2021/06/06 06:53:12;;;;;;;1.15;0.80;;;17.00;65.90;;;;;;4925989;29;20028;-78
2021/06/06 06:55:39;;;;;;;1.42;0.43;;;16.70;65.10;;;;;;4927764;29;20058;-77
2021/06/06 06:58:08;;;;;;;1.98;0.52;;;16.60;67.20;;;;;;4931290;29;20500;-77
2021/06/06 07:00:40;;;;;;;1.25;0.60;;;16.40;68.80;;;;;;4912811;29;20056;-76
2021/06/06 07:03:10;;;;;;;2.13;1.00;;;16.30;69.80;;;;;;4930668;29;20062;-76
2021/06/06 07:05:44;;;;;;;2.45;1.33;;;16.20;69.50;;;;;;4930513;29;20505;-76
2021/06/06 07:08:15;;;;;;;6.90;2.28;;;16.00;69.80;;;;;;4929663;29;20023;-78
2021/06/06 07:10:45;;;;;;;4.90;1.92;;;15.90;71.30;;;;;;4928448;29;20039;-76
2021/06/06 07:13:14;;;;;;;5.50;2.50;;;15.80;73.30;;;;;;4931068;29;20549;-79
2021/06/06 07:15:42;;;;;;;10.20;3.20;;;15.70;73.70;;;;;;4928637;29;20509;-77
2021/06/06 07:18:14;;;;;;;6.63;2.50;;;15.60;74.70;;;;;;4930444;29;20039;-77
2021/06/06 07:20:42;;;;;;;5.22;2.67;;;15.60;76.10;;;;;;4929083;28;20128;-77
2021/06/06 07:23:12;;;;;;;3.83;1.88;;;15.50;76.60;;;;;;4922699;29;20711;-75
2021/06/06 07:25:41;;;;;;;7.05;3.70;;;15.50;77.10;;;;;;4923749;29;23266;-75
2021/06/06 07:28:11;;;;;;;5.03;3.53;;;15.50;77.60;;;;;;4925026;29;20198;-75
2021/06/06 07:30:46;;;;;;;5.22;3.03;;;15.40;78.10;;;;;;4923485;29;20040;-78
2021/06/06 07:33:17;;;;;;;5.32;4.05;;;15.50;78.70;;;;;;4928302;29;20031;-77
2021/06/06 07:35:45;;;;;;;4.03;2.92;;;15.40;79.30;;;;;;4927132;29;20059;-76
2021/06/06 07:38:12;;;;;;;5.38;3.40;;;15.40;80.20;;;;;;4928001;29;20032;-78
2021/06/06 07:40:43;;;;;;;7.47;3.78;;;15.40;81.00;;;;;;4928219;29;20106;-76
2021/06/06 07:43:11;;;;;;;6.82;4.22;;;15.30;81.30;;;;;;4924546;29;20079;-75
2021/06/06 07:45:40;;;;;;;10.23;5.00;;;15.20;82.10;;;;;;4926293;29;20036;-76
2021/06/06 07:48:08;;;;;;;9.60;5.07;;;15.20;82.70;;;;;;4926475;29;20410;-76
2021/06/06 07:50:40;;;;;;;7.15;4.93;;;15.00;83.10;;;;;;4926387;29;21584;-74
2021/06/06 07:53:08;;;;;;;8.57;5.15;;;15.00;83.50;;;;;;4915566;29;20035;-74
2021/06/06 07:55:36;;;;;;;6.82;4.70;;;14.90;83.60;;;;;;4927177;29;20040;-73
2021/06/06 07:58:04;;;;;;;7.22;4.43;;;14.90;84.00;;;;;;4925310;29;20451;-75
2021/06/06 08:00:40;;;;;;;7.50;4.85;;;14.80;84.30;;;;;;4924736;29;20139;-75
2021/06/06 08:03:08;;;;;;;8.85;5.03;;;14.80;84.20;;;;;;4921059;29;20024;-74
2021/06/06 08:05:38;;;;;;;8.32;4.70;;;14.70;84.70;;;;;;4925304;29;20040;-74
2021/06/06 08:08:07;;;;;;;6.55;4.75;;;14.70;85.10;;;;;;4925308;29;20023;-74
2021/06/06 08:10:37;;;;;;;8.57;4.15;;;14.70;86.30;;;;;;4918722;29;20488;-74
2021/06/06 08:13:05;;;;;;;7.88;5.07;;;14.60;86.60;;;;;;4923928;29;20040;-75
2021/06/06 08:15:33;;;;;;;10.52;6.10;;;14.50;87.40;;;;;;4926883;29;20095;-75
2021/06/06 08:18:06;;;;;;;13.43;7.78;;;14.40;88.30;;;;;;4931131;29;20510;-74
2021/06/06 08:20:39;;;;;;;12.10;6.95;;;14.30;89.00;;;;;;4928826;29;20514;-76
2021/06/06 08:23:10;;;;;;;14.35;8.60;;;14.20;90.10;;;;;;4926896;29;20059;-75
2021/06/06 08:25:42;;;;;;;12.73;8.02;;;14.00;90.40;;;;;;4924280;28;20040;-75
2021/06/06 08:28:10;;;;;;;10.63;6.78;;;13.90;90.60;;;;;;4924634;29;20440;-75
2021/06/06 08:30:52;;;;;;;12.77;6.90;;;13.70;90.90;;;;;;4925068;29;20075;-74
2021/06/06 08:33:22;;;;;;;10.63;6.28;;;13.50;91.30;;;;;;4925927;29;20142;-74
2021/06/06 08:35:53;;;;;;;8.85;6.13;;;13.40;92.00;;;;;;4929636;28;20635;-74
2021/06/06 08:38:22;;;;;;;13.32;6.60;;;13.20;92.00;;;;;;4927596;29;20129;-74
2021/06/06 08:41:01;;;;;;;14.48;7.55;;;13.20;92.20;;;;;;4923025;29;20063;-76
2021/06/06 08:44:07;;;;;;;22.55;15.90;;;13.10;92.40;;;;;;4924287;29;20123;-75
2021/06/06 08:46:46;;;;;;;23.63;16.15;;;13.00;92.70;;;;;;4906520;29;20118;-74
2021/06/06 08:49:14;;;;;;;24.45;16.40;;;13.00;92.90;;;;;;4922982;29;20040;-77
2021/06/06 08:52:18;;;;;;;26.63;17.08;;;13.00;93.10;;;;;;4927203;29;20042;-76
2021/06/06 08:54:51;;;;;;;22.33;12.52;;;13.00;93.10;;;;;;4920566;29;20024;-76
2021/06/06 08:57:23;;;;;;;12.27;10.15;;;12.90;93.20;;;;;;4926435;29;20486;-76
2021/06/06 08:59:53;;;;;;;10.27;7.00;;;12.80;93.40;;;;;;4922055;29;20059;-76
2021/06/06 09:02:46;;;;;;;9.90;6.60;;;12.70;93.80;;;;;;4921377;29;20070;-75
2021/06/06 09:05:24;;;;;;;11.52;6.82;;;12.60;93.70;;;;;;4923460;29;20032;-77
2021/06/06 09:07:54;;;;;;;13.85;9.70;;;12.50;94.00;;;;;;4920639;29;20024;-75
2021/06/06 09:10:43;;;;;;;14.35;10.75;;;12.30;94.00;;;;;;4919602;29;20043;-76
2021/06/06 09:13:14;;;;;;;20.35;12.25;;;12.30;94.20;;;;;;4915082;29;20020;-75
2021/06/06 09:15:42;;;;;;;18.90;12.18;;;12.20;94.40;;;;;;4919073;29;20123;-78
2021/06/06 09:18:23;;;;;;;19.00;10.73;;;12.10;94.70;;;;;;4926637;29;20043;-76
2021/06/06 09:20:52;;;;;;;17.85;11.80;;;12.10;94.60;;;;;;4924663;29;20036;-76
2021/06/06 09:23:29;;;;;;;18.40;12.45;;;12.00;94.80;;;;;;4924274;29;20475;-79
2021/06/06 09:26:25;;;;;;;16.95;11.88;;;12.00;94.80;;;;;;4922010;29;20035;-76
2021/06/06 09:29:11;;;;;;;21.20;13.05;;;11.90;95.10;;;;;;4920252;29;20043;-75
2021/06/06 09:31:39;;;;;;;30.17;20.48;;;11.90;95.30;;;;;;4922266;29;20038;-76
2021/06/06 09:34:09;;;;;;;31.52;23.33;;;11.80;95.40;;;;;;4924300;29;20080;-76
2021/06/06 09:36:43;;;;;;;30.70;22.83;;;11.80;95.30;;;;;;4928063;29;20087;-77
2021/06/06 09:39:25;;;;;;;29.98;22.02;;;11.70;95.90;;;;;;4928288;29;20035;-77
2021/06/06 09:41:56;;;;;;;25.92;19.67;;;11.70;95.90;;;;;;4926287;29;20329;-78
2021/06/06 09:44:29;;;;;;;25.88;19.83;;;11.70;96.00;;;;;;4925822;29;20035;-77
2021/06/06 09:47:07;;;;;;;25.08;19.10;;;11.60;96.10;;;;;;4923234;29;20028;-75
2021/06/06 09:49:37;;;;;;;22.55;16.23;;;11.60;96.10;;;;;;4923838;29;20028;-76
2021/06/06 09:52:18;;;;;;;23.05;16.27;;;11.50;96.00;;;;;;4926239;29;20039;-76
2021/06/06 09:54:57;;;;;;;19.98;14.15;;;11.40;95.90;;;;;;4921072;29;20035;-75
2021/06/06 09:57:32;;;;;;;21.42;14.07;;;11.40;96.10;;;;;;4923273;29;20166;-76
2021/06/06 10:00:13;;;;;;;21.02;13.55;;;11.30;96.40;;;;;;4918451;29;20130;-76
2021/06/06 10:03:04;;;;;;;21.05;13.07;;;11.20;96.70;;;;;;4925839;29;20122;-76
2021/06/06 10:05:35;;;;;;;21.05;14.52;;;11.20;96.40;;;;;;4918722;29;23153;-76
2021/06/06 10:08:25;;;;;;;19.85;13.70;;;11.10;96.50;;;;;;4916843;29;20098;-75
2021/06/06 10:11:07;;;;;;;19.50;15.05;;;11.00;96.50;;;;;;4919487;29;20114;-76
2021/06/06 10:13:36;;;;;;;22.27;16.25;;;11.00;96.80;;;;;;4924238;29;20046;-76
2021/06/06 10:16:09;;;;;;;24.05;13.65;;;11.00;96.90;;;;;;4927418;29;20860;-76
2021/06/06 10:18:57;;;;;;;19.70;14.00;;;10.90;96.80;;;;;;4927540;29;20036;-77
2021/06/06 10:21:33;;;;;;;18.15;12.82;;;10.90;97.00;;;;;;4928406;29;21572;-78
2021/06/06 10:24:07;;;;;;;22.58;13.07;;;10.90;97.00;;;;;;4928683;29;20087;-76
2021/06/06 10:26:47;;;;;;;17.92;12.48;;;10.80;96.90;;;;;;4930053;29;20039;-79
2021/06/06 10:29:17;;;;;;;25.60;15.63;;;10.80;96.90;;;;;;4928368;29;21898;-76
2021/06/06 10:31:49;;;;;;;22.70;13.48;;;10.70;97.10;;;;;;4929351;29;20682;-75
2021/06/06 10:34:41;;;;;;;19.88;13.88;;;10.70;97.20;;;;;;4928581;29;20186;-77
2021/06/06 10:37:11;;;;;;;22.40;14.45;;;10.60;96.90;;;;;;4928334;29;20092;-76
2021/06/06 10:39:55;;;;;;;21.67;15.55;;;10.60;97.00;;;;;;4928966;29;20914;-77
2021/06/06 10:42:48;;;;;;;28.00;15.27;;;10.60;97.10;;;;;;4909955;29;20039;-76
2021/06/06 10:45:44;;;;;;;24.13;15.70;;;10.60;97.20;;;;;;4926037;29;20027;-76
2021/06/06 10:48:24;;;;;;;18.23;13.88;;;10.60;97.40;;;;;;4928108;29;20044;-76
2021/06/06 10:51:06;;;;;;;18.98;11.80;;;10.60;97.60;;;;;;4906897;29;20574;-75
2021/06/06 10:53:35;;;;;;;19.70;9.80;;;10.50;97.70;;;;;;4925838;29;20541;-76
2021/06/06 10:56:06;;;;;;;16.38;9.45;;;10.60;97.80;;;;;;4927229;29;20035;-76
2021/06/06 10:58:44;;;;;;;16.23;9.77;;;10.60;97.60;;;;;;4930529;29;20509;-76
2021/06/06 11:01:23;;;;;;;11.95;6.78;;;10.60;97.60;;;;;;4926857;29;20047;-76
2021/06/06 11:04:05;;;;;;;13.77;7.22;;;10.40;97.50;;;;;;4933022;29;20434;-75
2021/06/06 11:06:35;;;;;;;9.05;6.30;;;10.40;97.70;;;;;;4929306;29;20399;-75
2021/06/06 11:09:05;;;;;;;9.48;5.70;;;10.30;97.70;;;;;;4907286;29;20490;-74
2021/06/06 11:11:36;;;;;;;9.93;5.72;;;10.20;97.60;;;;;;4927743;29;20095;-76
2021/06/06 11:14:09;;;;;;;7.20;5.55;;;10.20;97.80;;;;;;4928765;29;20038;-75
2021/06/06 11:16:41;;;;;;;8.40;5.95;;;10.00;97.90;;;;;;4933484;29;20118;-76
2021/06/06 11:19:19;;;;;;;11.63;6.35;;;10.00;98.10;;;;;;4928614;29;20135;-77
2021/06/06 11:21:46;;;;;;;8.20;5.32;;;9.90;98.00;;;;;;4927782;29;20032;-77
2021/06/06 11:24:44;;;;;;;12.10;6.55;;;9.80;98.00;;;;;;4909553;29;20055;-75
2021/06/06 11:27:11;;;;;;;8.52;5.85;;;9.80;98.10;;;;;;4926155;29;20110;-76
2021/06/06 11:29:54;;;;;;;8.23;5.72;;;9.70;98.20;;;;;;4932495;29;20039;-75
2021/06/06 11:32:23;;;;;;;9.45;6.53;;;9.70;98.20;;;;;;4909711;29;20090;-76
2021/06/06 11:35:10;;;;;;;8.02;5.78;;;9.60;98.00;;;;;;4930439;29;20027;-76
2021/06/06 11:37:44;;;;;;;11.00;6.45;;;9.70;98.10;;;;;;4928631;29;20043;-76
2021/06/06 11:40:34;;;;;;;9.50;5.70;;;9.60;98.50;;;;;;4929492;29;20024;-76
2021/06/06 11:43:14;;;;;;;11.20;6.13;;;9.60;98.60;;;;;;4925968;29;20130;-76
2021/06/06 11:45:48;;;;;;;11.32;6.78;;;9.40;98.80;;;;;;4927470;29;20087;-76
2021/06/06 11:48:24;;;;;;;9.05;6.15;;;9.30;99.10;;;;;;4926166;29;20043;-76
2021/06/06 11:50:56;;;;;;;13.07;6.53;;;9.20;99.20;;;;;;4926925;29;20038;-76
2021/06/06 11:53:39;;;;;;;9.63;6.32;;;9.20;99.00;;;;;;4926121;29;20139;-76
2021/06/06 11:56:44;;;;;;;9.30;5.82;;;9.20;99.00;;;;;;4927192;29;20035;-76
2021/06/06 11:59:37;;;;;;;9.10;5.45;;;9.10;98.90;;;;;;4846642;29;20992;-76
2021/06/06 12:02:34;;;;;;;9.50;6.70;;;9.10;99.10;;;;;;4859257;29;20081;-75
2021/06/06 12:05:22;;;;;;;9.70;6.18;;;9.10;99.00;;;;;;4910489;29;20060;-76
2021/06/06 12:07:52;;;;;;;14.30;7.15;;;9.10;99.20;;;;;;4926806;29;20031;-76
2021/06/06 12:10:32;;;;;;;9.40;7.18;;;8.90;99.50;;;;;;4925410;29;20031;-77
2021/06/06 12:13:02;;;;;;;8.68;6.13;;;8.90;99.90;;;;;;4926808;29;20516;-76
2021/06/06 12:15:38;;;;;;;11.98;5.85;;;8.90;99.80;;;;;;4925868;29;20036;-77
2021/06/06 12:18:16;;;;;;;12.00;7.57;;;8.90;99.90;;;;;;4932046;29;20661;-76
2021/06/06 12:21:00;;;;;;;12.60;7.53;;;9.00;99.80;;;;;;4926559;29;20039;-76
2021/06/06 12:23:30;;;;;;;10.13;8.48;;;9.00;99.90;;;;;;4926643;29;20501;-76
2021/06/06 12:26:28;;;;;;;15.07;10.15;;;9.00;99.80;;;;;;4933348;29;20047;-76
2021/06/06 12:28:58;;;;;;;13.88;9.18;;;9.00;99.80;;;;;;4928796;29;20379;-77
2021/06/06 12:31:33;;;;;;;14.25;8.80;;;9.10;99.80;;;;;;4931276;29;20078;-76
2021/06/06 12:34:22;;;;;;;17.20;8.40;;;9.00;99.70;;;;;;4933717;29;20569;-76
2021/06/06 12:36:56;;;;;;;13.30;7.40;;;9.00;99.50;;;;;;4926511;29;20090;-76
2021/06/06 12:39:24;;;;;;;10.65;7.43;;;8.90;99.50;;;;;;4928267;29;20020;-76
2021/06/06 12:41:54;;;;;;;11.20;8.13;;;8.90;99.80;;;;;;4932286;29;20036;-76
2021/06/06 12:44:27;;;;;;;12.65;7.78;;;8.80;99.50;;;;;;4929882;29;20031;-76
2021/06/06 12:47:04;;;;;;;11.43;7.70;;;8.80;99.70;;;;;;4930159;29;20036;-76
2021/06/06 12:49:34;;;;;;;15.80;7.90;;;8.80;99.60;;;;;;4925603;29;20027;-77
2021/06/06 12:52:35;;;;;;;11.93;8.18;;;8.70;99.80;;;;;;4930846;29;20032;-76
2021/06/06 12:55:12;;;;;;;15.30;7.85;;;8.60;99.90;;;;;;4912585;29;20365;-76
2021/06/06 12:57:41;;;;;;;12.93;8.93;;;8.50;99.90;;;;;;4926606;29;20040;-76
2021/06/06 13:00:19;;;;;;;12.68;7.80;;;8.50;99.90;;;;;;4928728;29;20042;-78
2021/06/06 13:02:48;;;;;;;16.90;9.35;;;8.50;99.90;;;;;;4921918;29;20031;-77
2021/06/06 13:05:31;;;;;;;15.35;9.23;;;8.50;99.90;;;;;;4926995;29;20031;-77
2021/06/06 13:08:02;;;;;;;17.30;9.93;;;8.40;99.70;;;;;;4929180;29;20102;-76
2021/06/06 13:10:54;;;;;;;16.40;8.93;;;8.40;99.60;;;;;;4925590;29;20031;-77
2021/06/06 13:13:33;;;;;;;13.30;8.13;;;8.40;99.70;;;;;;4924254;29;20051;-76
2021/06/06 13:16:11;;;;;;;13.57;8.88;;;8.40;99.70;;;;;;4926528;29;20088;-76